sensor_id;sensor_type;location;lat;lon;timestamp;pressure;altitude;pressure_sealevel;temperature
79053;BMP280;68451;49.510;6.026;2023-08-24T00:01:30;98313.44;;;19.71
79053;BMP280;68451;49.510;6.026;2023-08-24T00:03:56;98175.50;;;18.93
79053;BMP280;68451;49.510;6.026;2023-08-24T00:06:21;98341.38;;;19.97
79053;BMP280;68451;49.510;6.026;2023-08-24T00:08:47;98334.53;;;19.91
79053;BMP280;68451;49.510;6.026;2023-08-24T00:11:12;98362.53;;;20.12
79053;BMP280;68451;49.510;6.026;2023-08-24T00:13:42;98311.25;;;19.83
79053;BMP280;68451;49.510;6.026;2023-08-24T00:16:20;98213.97;;;19.34
79053;BMP280;68451;49.510;6.026;2023-08-24T00:18:46;98296.31;;;20.02
79053;BMP280;68451;49.510;6.026;2023-08-24T00:21:15;98259.22;;;19.97
79053;BMP280;68451;49.510;6.026;2023-08-24T00:23:48;98263.91;;;20.10
79053;BMP280;68451;49.510;6.026;2023-08-24T00:26:14;98214.38;;;19.66
79053;BMP280;68451;49.510;6.026;2023-08-24T00:28:42;98255.56;;;19.88
79053;BMP280;68451;49.510;6.026;2023-08-24T00:31:08;98216.25;;;19.61
79053;BMP280;68451;49.510;6.026;2023-08-24T00:33:33;98262.47;;;19.89
79053;BMP280;68451;49.510;6.026;2023-08-24T00:36:02;98292.00;;;20.11
79053;BMP280;68451;49.510;6.026;2023-08-24T00:38:28;98285.25;;;19.90
79053;BMP280;68451;49.510;6.026;2023-08-24T00:40:54;98315.88;;;20.06
79053;BMP280;68451;49.510;6.026;2023-08-24T00:43:20;98163.50;;;19.15
79053;BMP280;68451;49.510;6.026;2023-08-24T00:45:53;98137.91;;;19.06
79053;BMP280;68451;49.510;6.026;2023-08-24T00:48:20;98118.38;;;18.97
79053;BMP280;68451;49.510;6.026;2023-08-24T00:50:54;98200.69;;;19.54
79053;BMP280;68451;49.510;6.026;2023-08-24T00:53:20;98223.91;;;19.73
79053;BMP280;68451;49.510;6.026;2023-08-24T00:55:46;98244.13;;;19.97
79053;BMP280;68451;49.510;6.026;2023-08-24T00:58:13;98238.25;;;20.00
79053;BMP280;68451;49.510;6.026;2023-08-24T01:00:39;98092.94;;;19.01
79053;BMP280;68451;49.510;6.026;2023-08-24T01:03:04;98181.88;;;19.51
79053;BMP280;68451;49.510;6.026;2023-08-24T01:05:30;98172.66;;;19.38
79053;BMP280;68451;49.510;6.026;2023-08-24T01:07:56;98199.94;;;19.44
79053;BMP280;68451;49.510;6.026;2023-08-24T01:10:21;98197.63;;;19.27
79053;BMP280;68451;49.510;6.026;2023-08-24T01:13:10;98235.16;;;19.44
79053;BMP280;68451;49.510;6.026;2023-08-24T01:16:05;98246.81;;;19.33
79053;BMP280;68451;49.510;6.026;2023-08-24T01:18:33;98204.59;;;19.03
79053;BMP280;68451;49.510;6.026;2023-08-24T01:21:01;97955.41;;;17.47
79053;BMP280;68451;49.510;6.026;2023-08-24T01:26:03;98177.38;;;18.92
79053;BMP280;68451;49.510;6.026;2023-08-24T01:28:30;98182.38;;;18.99
79053;BMP280;68451;49.510;6.026;2023-08-24T01:30:55;98187.41;;;19.00
79053;BMP280;68451;49.510;6.026;2023-08-24T01:33:21;98174.97;;;19.01
79053;BMP280;68451;49.510;6.026;2023-08-24T01:35:47;97878.41;;;17.15
79053;BMP280;68451;49.510;6.026;2023-08-24T01:38:12;98154.88;;;18.90
79053;BMP280;68451;49.510;6.026;2023-08-24T01:43:26;98014.25;;;18.03
79053;BMP280;68451;49.510;6.026;2023-08-24T01:45:55;98118.19;;;18.73
79053;BMP280;68451;49.510;6.026;2023-08-24T01:48:21;98195.47;;;19.29
79053;BMP280;68451;49.510;6.026;2023-08-24T01:50:48;98021.56;;;18.21
79053;BMP280;68451;49.510;6.026;2023-08-24T01:53:14;98184.91;;;19.24
79053;BMP280;68451;49.510;6.026;2023-08-24T01:55:40;98141.38;;;19.01
79053;BMP280;68451;49.510;6.026;2023-08-24T01:58:06;98150.88;;;18.97
79053;BMP280;68451;49.510;6.026;2023-08-24T02:00:32;98167.19;;;19.19
79053;BMP280;68451;49.510;6.026;2023-08-24T02:02:57;98082.25;;;18.67
79053;BMP280;68451;49.510;6.026;2023-08-24T02:05:23;98164.06;;;19.12
79053;BMP280;68451;49.510;6.026;2023-08-24T02:07:52;98154.50;;;19.21
79053;BMP280;68451;49.510;6.026;2023-08-24T02:10:18;98093.53;;;18.88
79053;BMP280;68451;49.510;6.026;2023-08-24T02:12:43;98134.44;;;19.10
79053;BMP280;68451;49.510;6.026;2023-08-24T02:15:09;98122.03;;;19.06
79053;BMP280;68451;49.510;6.026;2023-08-24T02:17:34;98093.00;;;18.91
79053;BMP280;68451;49.510;6.026;2023-08-24T02:20:00;98113.03;;;19.02
79053;BMP280;68451;49.510;6.026;2023-08-24T02:22:25;98091.97;;;18.87
79053;BMP280;68451;49.510;6.026;2023-08-24T02:24:52;98076.63;;;18.84
79053;BMP280;68451;49.510;6.026;2023-08-24T02:27:18;98142.06;;;19.22
79053;BMP280;68451;49.510;6.026;2023-08-24T02:29:43;98131.97;;;19.24
79053;BMP280;68451;49.510;6.026;2023-08-24T02:32:09;98095.63;;;18.96
79053;BMP280;68451;49.510;6.026;2023-08-24T02:34:35;98167.41;;;19.33
79053;BMP280;68451;49.510;6.026;2023-08-24T02:37:01;98154.22;;;19.23
79053;BMP280;68451;49.510;6.026;2023-08-24T02:39:27;98176.69;;;19.31
79053;BMP280;68451;49.510;6.026;2023-08-24T02:41:52;98125.22;;;18.98
79053;BMP280;68451;49.510;6.026;2023-08-24T02:44:18;98149.78;;;19.13
79053;BMP280;68451;49.510;6.026;2023-08-24T02:46:48;98130.50;;;19.03
79053;BMP280;68451;49.510;6.026;2023-08-24T02:49:13;98108.88;;;18.91
79053;BMP280;68451;49.510;6.026;2023-08-24T02:51:39;98032.59;;;18.44
79053;BMP280;68451;49.510;6.026;2023-08-24T02:54:06;98120.72;;;19.03
79053;BMP280;68451;49.510;6.026;2023-08-24T02:56:31;98144.69;;;19.22
79053;BMP280;68451;49.510;6.026;2023-08-24T02:58:57;98072.94;;;18.79
79053;BMP280;68451;49.510;6.026;2023-08-24T03:01:22;98092.94;;;19.01
79053;BMP280;68451;49.510;6.026;2023-08-24T03:03:48;98166.78;;;19.51
79053;BMP280;68451;49.510;6.026;2023-08-24T03:06:13;97991.38;;;18.43
79053;BMP280;68451;49.510;6.026;2023-08-24T03:08:39;98040.75;;;18.57
79053;BMP280;68451;49.510;6.026;2023-08-24T03:11:04;98154.25;;;19.18
79053;BMP280;68451;49.510;6.026;2023-08-24T03:13:30;98185.72;;;19.19
79053;BMP280;68451;49.510;6.026;2023-08-24T03:15:56;98227.31;;;19.19
79053;BMP280;68451;49.510;6.026;2023-08-24T03:18:22;97973.88;;;17.37
79053;BMP280;68451;49.510;6.026;2023-08-24T03:20:48;98113.28;;;18.16
79053;BMP280;68451;49.510;6.026;2023-08-24T03:23:15;98260.44;;;19.01
79053;BMP280;68451;49.510;6.026;2023-08-24T03:25:42;98147.34;;;18.17
79053;BMP280;68451;49.510;6.026;2023-08-24T03:28:08;98264.41;;;18.89
79053;BMP280;68451;49.510;6.026;2023-08-24T03:30:38;98283.47;;;18.96
79053;BMP280;68451;49.510;6.026;2023-08-24T03:33:04;98280.03;;;18.95
79053;BMP280;68451;49.510;6.026;2023-08-24T03:35:31;98289.00;;;18.99
79053;BMP280;68451;49.510;6.026;2023-08-24T03:37:56;98277.13;;;18.97
79053;BMP280;68451;49.510;6.026;2023-08-24T03:40:22;97989.19;;;17.20
79053;BMP280;68451;49.510;6.026;2023-08-24T03:42:47;98297.19;;;19.13
79053;BMP280;68451;49.510;6.026;2023-08-24T03:45:13;98222.69;;;18.65
79053;BMP280;68451;49.510;6.026;2023-08-24T03:47:38;98306.72;;;19.14
79053;BMP280;68451;49.510;6.026;2023-08-24T03:50:04;98201.25;;;18.37
79053;BMP280;68451;49.510;6.026;2023-08-24T03:52:30;98220.81;;;18.41
79053;BMP280;68451;49.510;6.026;2023-08-24T03:54:56;98300.66;;;18.93
79053;BMP280;68451;49.510;6.026;2023-08-24T03:57:22;98277.13;;;18.87
79053;BMP280;68451;49.510;6.026;2023-08-24T03:59:47;98304.06;;;19.14
79053;BMP280;68451;49.510;6.026;2023-08-24T04:02:13;98283.72;;;19.04
79053;BMP280;68451;49.510;6.026;2023-08-24T04:04:38;98236.16;;;18.79
79053;BMP280;68451;49.510;6.026;2023-08-24T04:07:04;98282.59;;;19.20
79053;BMP280;68451;49.510;6.026;2023-08-24T04:09:30;98136.75;;;18.43
79053;BMP280;68451;49.510;6.026;2023-08-24T04:11:56;98216.75;;;19.09
79053;BMP280;68451;49.510;6.026;2023-08-24T04:14:21;98204.03;;;19.11
79053;BMP280;68451;49.510;6.026;2023-08-24T04:16:46;98199.22;;;19.23
79053;BMP280;68451;49.510;6.026;2023-08-24T04:19:12;98190.19;;;19.24
79053;BMP280;68451;49.510;6.026;2023-08-24T04:21:38;98130.56;;;18.88
79053;BMP280;68451;49.510;6.026;2023-08-24T04:24:04;98111.63;;;18.60
79053;BMP280;68451;49.510;6.026;2023-08-24T04:26:30;98067.75;;;18.44
79053;BMP280;68451;49.510;6.026;2023-08-24T04:28:56;98118.69;;;18.75
79053;BMP280;68451;49.510;6.026;2023-08-24T04:31:21;98180.84;;;18.83
79053;BMP280;68451;49.510;6.026;2023-08-24T04:33:47;98223.44;;;18.81
79053;BMP280;68451;49.510;6.026;2023-08-24T04:36:12;98192.81;;;18.55
79053;BMP280;68451;49.510;6.026;2023-08-24T04:38:38;98208.38;;;18.66
79053;BMP280;68451;49.510;6.026;2023-08-24T04:41:06;98179.31;;;18.61
79053;BMP280;68451;49.510;6.026;2023-08-24T04:43:32;98145.19;;;18.50
79053;BMP280;68451;49.510;6.026;2023-08-24T04:45:58;98189.59;;;18.83
79053;BMP280;68451;49.510;6.026;2023-08-24T04:48:25;98156.03;;;18.63
79053;BMP280;68451;49.510;6.026;2023-08-24T04:50:58;98204.59;;;18.93
79053;BMP280;68451;49.510;6.026;2023-08-24T04:53:25;98196.72;;;18.88
79053;BMP280;68451;49.510;6.026;2023-08-24T04:55:51;98158.69;;;18.58
79053;BMP280;68451;49.510;6.026;2023-08-24T04:58:17;98193.31;;;18.62
79053;BMP280;68451;49.510;6.026;2023-08-24T05:00:42;98187.78;;;18.53
79053;BMP280;68451;49.510;6.026;2023-08-24T05:03:08;98243.25;;;18.89
79053;BMP280;68451;49.510;6.026;2023-08-24T05:05:35;98237.19;;;18.88
79053;BMP280;68451;49.510;6.026;2023-08-24T05:08:02;98181.19;;;18.61
79053;BMP280;68451;49.510;6.026;2023-08-24T05:10:31;98085.81;;;18.07
79053;BMP280;68451;49.510;6.026;2023-08-24T05:12:57;98165.31;;;18.56
79053;BMP280;68451;49.510;6.026;2023-08-24T05:15:22;98205.72;;;18.82
79053;BMP280;68451;49.510;6.026;2023-08-24T05:17:48;98228.41;;;19.03
79053;BMP280;68451;49.510;6.026;2023-08-24T05:20:14;98224.72;;;18.99
79053;BMP280;68451;49.510;6.026;2023-08-24T05:22:40;98085.53;;;18.13
79053;BMP280;68451;49.510;6.026;2023-08-24T05:25:05;98208.59;;;18.90
79053;BMP280;68451;49.510;6.026;2023-08-24T05:27:31;98069.44;;;18.00
79053;BMP280;68451;49.510;6.026;2023-08-24T05:29:57;98267.50;;;19.21
79053;BMP280;68451;49.510;6.026;2023-08-24T05:32:22;98221.56;;;18.92
79053;BMP280;68451;49.510;6.026;2023-08-24T05:34:48;98263.03;;;19.11
79053;BMP280;68451;49.510;6.026;2023-08-24T05:37:14;98209.69;;;18.49
79053;BMP280;68451;49.510;6.026;2023-08-24T05:39:39;98351.72;;;19.14
79053;BMP280;68451;49.510;6.026;2023-08-24T05:42:05;98376.28;;;19.30
79053;BMP280;68451;49.510;6.026;2023-08-24T05:44:31;98299.06;;;18.97
79053;BMP280;68451;49.510;6.026;2023-08-24T05:46:56;98309.03;;;19.31
79053;BMP280;68451;49.510;6.026;2023-08-24T05:49:22;98193.03;;;18.78
79053;BMP280;68451;49.510;6.026;2023-08-24T05:51:51;98101.91;;;18.25
79053;BMP280;68451;49.510;6.026;2023-08-24T05:54:17;98131.72;;;18.61
79053;BMP280;68451;49.510;6.026;2023-08-24T05:56:46;98169.91;;;19.09
79053;BMP280;68451;49.510;6.026;2023-08-24T05:59:12;98173.78;;;19.27
79053;BMP280;68451;49.510;6.026;2023-08-24T06:01:37;98152.44;;;19.08
79053;BMP280;68451;49.510;6.026;2023-08-24T06:04:05;98170.69;;;19.10
79053;BMP280;68451;49.510;6.026;2023-08-24T06:06:30;98074.59;;;18.65
79053;BMP280;68451;49.510;6.026;2023-08-24T06:08:56;98124.13;;;19.09
79053;BMP280;68451;49.510;6.026;2023-08-24T06:11:22;98141.50;;;19.25
79053;BMP280;68451;49.510;6.026;2023-08-24T06:13:48;98158.91;;;19.36
79053;BMP280;68451;49.510;6.026;2023-08-24T06:16:13;98144.16;;;19.20
79053;BMP280;68451;49.510;6.026;2023-08-24T06:18:39;98123.34;;;19.08
79053;BMP280;68451;49.510;6.026;2023-08-24T06:21:04;98142.56;;;19.24
79053;BMP280;68451;49.510;6.026;2023-08-24T06:23:30;98121.38;;;19.24
79053;BMP280;68451;49.510;6.026;2023-08-24T06:25:55;98125.56;;;19.35
79053;BMP280;68451;49.510;6.026;2023-08-24T06:28:21;97981.56;;;18.53
79053;BMP280;68451;49.510;6.026;2023-08-24T06:30:46;98074.13;;;19.07
79053;BMP280;68451;49.510;6.026;2023-08-24T06:33:13;98083.09;;;19.11
79053;BMP280;68451;49.510;6.026;2023-08-24T06:35:38;98107.56;;;19.37
79053;BMP280;68451;49.510;6.026;2023-08-24T06:38:04;98060.66;;;19.04
79053;BMP280;68451;49.510;6.026;2023-08-24T06:40:30;98101.78;;;19.30
79053;BMP280;68451;49.510;6.026;2023-08-24T06:42:56;98141.41;;;19.50
79053;BMP280;68451;49.510;6.026;2023-08-24T06:45:22;98092.00;;;19.26
79053;BMP280;68451;49.510;6.026;2023-08-24T06:47:48;98102.28;;;19.37
79053;BMP280;68451;49.510;6.026;2023-08-24T06:50:14;98122.41;;;19.77
79053;BMP280;68451;49.510;6.026;2023-08-24T06:52:41;98092.22;;;19.73
79053;BMP280;68451;49.510;6.026;2023-08-24T06:55:08;97838.47;;;18.21
79053;BMP280;68451;49.510;6.026;2023-08-24T06:57:33;98100.09;;;19.83
79053;BMP280;68451;49.510;6.026;2023-08-24T06:59:59;98086.16;;;19.73
79053;BMP280;68451;49.510;6.026;2023-08-24T07:02:25;98024.97;;;19.35
79053;BMP280;68451;49.510;6.026;2023-08-24T07:04:51;98034.50;;;19.36
79053;BMP280;68451;49.510;6.026;2023-08-24T07:07:16;98066.47;;;19.50
79053;BMP280;68451;49.510;6.026;2023-08-24T07:09:42;98082.00;;;19.61
79053;BMP280;68451;49.510;6.026;2023-08-24T07:12:09;98090.94;;;19.71
79053;BMP280;68451;49.510;6.026;2023-08-24T07:14:36;97884.66;;;18.33
79053;BMP280;68451;49.510;6.026;2023-08-24T07:17:02;98069.41;;;19.43
79053;BMP280;68451;49.510;6.026;2023-08-24T07:19:28;98087.63;;;19.55
79053;BMP280;68451;49.510;6.026;2023-08-24T07:21:53;98048.81;;;19.30
79053;BMP280;68451;49.510;6.026;2023-08-24T07:24:19;98071.16;;;19.58
79053;BMP280;68451;49.510;6.026;2023-08-24T07:26:46;98048.16;;;19.53
79053;BMP280;68451;49.510;6.026;2023-08-24T07:29:12;98007.28;;;19.31
79053;BMP280;68451;49.510;6.026;2023-08-24T07:31:37;98036.78;;;19.53
79053;BMP280;68451;49.510;6.026;2023-08-24T07:34:03;98071.13;;;19.92
79053;BMP280;68451;49.510;6.026;2023-08-24T07:36:32;98029.31;;;20.84
79053;BMP280;68451;49.510;6.026;2023-08-24T07:38:58;98000.50;;;21.93
79053;BMP280;68451;49.510;6.026;2023-08-24T07:41:23;98028.78;;;22.16
79053;BMP280;68451;49.510;6.026;2023-08-24T07:43:49;97955.84;;;22.22
79053;BMP280;68451;49.510;6.026;2023-08-24T07:46:14;97994.03;;;23.26
79053;BMP280;68451;49.510;6.026;2023-08-24T07:48:40;97992.22;;;24.19
79053;BMP280;68451;49.510;6.026;2023-08-24T07:51:06;97993.31;;;24.91
79053;BMP280;68451;49.510;6.026;2023-08-24T07:53:32;98016.50;;;24.74
79053;BMP280;68451;49.510;6.026;2023-08-24T07:55:58;97934.91;;;23.68
79053;BMP280;68451;49.510;6.026;2023-08-24T07:58:25;97689.63;;;22.02
79053;BMP280;68451;49.510;6.026;2023-08-24T08:00:50;97999.34;;;23.70
79053;BMP280;68451;49.510;6.026;2023-08-24T08:03:18;97999.50;;;24.44
79053;BMP280;68451;49.510;6.026;2023-08-24T08:05:44;98023.47;;;25.01
79053;BMP280;68451;49.510;6.026;2023-08-24T08:08:10;98016.56;;;25.00
79053;BMP280;68451;49.510;6.026;2023-08-24T08:10:35;97991.41;;;25.44
79053;BMP280;68451;49.510;6.026;2023-08-24T08:13:01;98027.81;;;25.82
79053;BMP280;68451;49.510;6.026;2023-08-24T08:15:26;97889.09;;;25.26
79053;BMP280;68451;49.510;6.026;2023-08-24T08:17:52;98000.78;;;26.22
79053;BMP280;68451;49.510;6.026;2023-08-24T08:20:17;97979.50;;;26.25
79053;BMP280;68451;49.510;6.026;2023-08-24T08:22:43;98000.50;;;26.44
79053;BMP280;68451;49.510;6.026;2023-08-24T08:25:09;97879.34;;;25.30
79053;BMP280;68451;49.510;6.026;2023-08-24T08:27:36;98030.84;;;26.19
79053;BMP280;68451;49.510;6.026;2023-08-24T08:30:01;97829.16;;;24.80
79053;BMP280;68451;49.510;6.026;2023-08-24T08:32:30;98029.84;;;26.32
79053;BMP280;68451;49.510;6.026;2023-08-24T08:34:55;97991.34;;;26.24
79053;BMP280;68451;49.510;6.026;2023-08-24T08:37:23;97953.22;;;26.27
79053;BMP280;68451;49.510;6.026;2023-08-24T08:39:49;97933.31;;;26.37
79053;BMP280;68451;49.510;6.026;2023-08-24T08:42:14;97942.47;;;26.36
79053;BMP280;68451;49.510;6.026;2023-08-24T08:44:42;97971.34;;;26.51
79053;BMP280;68451;49.510;6.026;2023-08-24T08:47:10;97977.56;;;26.64
79053;BMP280;68451;49.510;6.026;2023-08-24T08:49:42;97851.88;;;25.97
79053;BMP280;68451;49.510;6.026;2023-08-24T08:52:09;97918.09;;;26.70
79053;BMP280;68451;49.510;6.026;2023-08-24T08:54:35;97943.00;;;27.12
79053;BMP280;68451;49.510;6.026;2023-08-24T08:57:01;97969.50;;;27.26
79053;BMP280;68451;49.510;6.026;2023-08-24T08:59:30;97939.34;;;27.29
79053;BMP280;68451;49.510;6.026;2023-08-24T09:02:03;97962.59;;;27.58
79053;BMP280;68451;49.510;6.026;2023-08-24T09:04:33;97821.56;;;26.88
79053;BMP280;68451;49.510;6.026;2023-08-24T09:06:59;97920.31;;;27.55
79053;BMP280;68451;49.510;6.026;2023-08-24T09:09:30;97951.44;;;27.92
79053;BMP280;68451;49.510;6.026;2023-08-24T09:11:55;97947.19;;;27.91
79053;BMP280;68451;49.510;6.026;2023-08-24T09:14:21;97936.88;;;27.81
79053;BMP280;68451;49.510;6.026;2023-08-24T09:16:46;97862.63;;;27.25
79053;BMP280;68451;49.510;6.026;2023-08-24T09:19:12;97975.50;;;28.13
79053;BMP280;68451;49.510;6.026;2023-08-24T09:21:39;97902.81;;;27.82
79053;BMP280;68451;49.510;6.026;2023-08-24T09:24:05;97897.31;;;27.90
79053;BMP280;68451;49.510;6.026;2023-08-24T09:26:34;97952.69;;;28.43
79053;BMP280;68451;49.510;6.026;2023-08-24T09:29:12;97893.09;;;28.14
79053;BMP280;68451;49.510;6.026;2023-08-24T09:31:39;97940.09;;;28.60
79053;BMP280;68451;49.510;6.026;2023-08-24T09:34:07;97739.31;;;27.37
79053;BMP280;68451;49.510;6.026;2023-08-24T09:36:34;97943.59;;;29.00
79053;BMP280;68451;49.510;6.026;2023-08-24T09:39:00;97939.22;;;29.23
79053;BMP280;68451;49.510;6.026;2023-08-24T09:41:40;97917.44;;;29.28
79053;BMP280;68451;49.510;6.026;2023-08-24T09:44:06;97880.28;;;28.87
79053;BMP280;68451;49.510;6.026;2023-08-24T09:46:33;97898.06;;;28.39
79053;BMP280;68451;49.510;6.026;2023-08-24T09:48:58;97879.34;;;28.03
79053;BMP280;68451;49.510;6.026;2023-08-24T09:51:29;97802.91;;;27.36
79053;BMP280;68451;49.510;6.026;2023-08-24T09:53:57;97952.69;;;28.07
79053;BMP280;68451;49.510;6.026;2023-08-24T09:56:28;97904.81;;;27.48
79053;BMP280;68451;49.510;6.026;2023-08-24T09:58:54;97951.84;;;27.58
79053;BMP280;68451;49.510;6.026;2023-08-24T10:01:23;97946.31;;;27.42
79053;BMP280;68451;49.510;6.026;2023-08-24T10:03:53;97912.97;;;27.19
79053;BMP280;68451;49.510;6.026;2023-08-24T10:06:21;97928.13;;;27.15
79053;BMP280;68451;49.510;6.026;2023-08-24T10:08:55;97929.75;;;26.95
79053;BMP280;68451;49.510;6.026;2023-08-24T10:11:26;97883.50;;;26.65
79053;BMP280;68451;49.510;6.026;2023-08-24T10:14:00;97934.31;;;26.95
79053;BMP280;68451;49.510;6.026;2023-08-24T10:16:33;97909.94;;;26.67
79053;BMP280;68451;49.510;6.026;2023-08-24T10:19:00;97904.84;;;26.53
79053;BMP280;68451;49.510;6.026;2023-08-24T10:21:26;97869.75;;;26.05
79053;BMP280;68451;49.510;6.026;2023-08-24T10:23:56;97835.00;;;25.75
79053;BMP280;68451;49.510;6.026;2023-08-24T10:26:22;97820.31;;;25.61
79053;BMP280;68451;49.510;6.026;2023-08-24T10:28:49;97908.13;;;26.09
79053;BMP280;68451;49.510;6.026;2023-08-24T10:31:15;97915.31;;;26.17
79053;BMP280;68451;49.510;6.026;2023-08-24T10:33:42;97898.34;;;26.13
79053;BMP280;68451;49.510;6.026;2023-08-24T10:36:09;97829.13;;;25.53
79053;BMP280;68451;49.510;6.026;2023-08-24T10:38:40;97891.91;;;25.84
79053;BMP280;68451;49.510;6.026;2023-08-24T10:41:07;97883.50;;;25.65
79053;BMP280;68451;49.510;6.026;2023-08-24T10:43:40;97883.97;;;25.59
79053;BMP280;68451;49.510;6.026;2023-08-24T10:46:13;97893.56;;;25.60
79053;BMP280;68451;49.510;6.026;2023-08-24T10:53:52;97906.81;;;25.56
79053;BMP280;68451;49.510;6.026;2023-08-24T10:56:18;97857.28;;;25.41
79053;BMP280;68451;49.510;6.026;2023-08-24T10:58:45;97865.75;;;25.52
79053;BMP280;68451;49.510;6.026;2023-08-24T11:01:18;97858.72;;;25.39
79053;BMP280;68451;49.510;6.026;2023-08-24T11:03:51;97861.47;;;25.13
79053;BMP280;68451;49.510;6.026;2023-08-24T11:06:24;97839.22;;;24.66
79053;BMP280;68451;49.510;6.026;2023-08-24T11:09:05;97912.06;;;25.10
79053;BMP280;68451;49.510;6.026;2023-08-24T11:11:32;97889.78;;;24.97
79053;BMP280;68451;49.510;6.026;2023-08-24T11:14:18;97917.41;;;25.10
79053;BMP280;68451;49.510;6.026;2023-08-24T11:17:17;97929.50;;;25.24
79053;BMP280;68451;49.510;6.026;2023-08-24T11:19:50;97920.34;;;25.34
79053;BMP280;68451;49.510;6.026;2023-08-24T11:22:17;97775.81;;;24.37
79053;BMP280;68451;49.510;6.026;2023-08-24T11:24:43;97925.56;;;25.22
79053;BMP280;68451;49.510;6.026;2023-08-24T11:27:09;97947.91;;;25.00
79053;BMP280;68451;49.510;6.026;2023-08-24T11:29:35;97985.44;;;24.86
79053;BMP280;68451;49.510;6.026;2023-08-24T11:32:00;98068.66;;;24.71
79053;BMP280;68451;49.510;6.026;2023-08-24T11:34:27;98091.66;;;24.50
79053;BMP280;68451;49.510;6.026;2023-08-24T11:36:52;97973.53;;;23.35
79053;BMP280;68451;49.510;6.026;2023-08-24T11:39:21;98119.59;;;23.91
79053;BMP280;68451;49.510;6.026;2023-08-24T11:42:00;98174.53;;;23.78
79053;BMP280;68451;49.510;6.026;2023-08-24T11:44:26;98219.22;;;23.59
79053;BMP280;68451;49.510;6.026;2023-08-24T11:46:51;98144.59;;;22.96
79053;BMP280;68451;49.510;6.026;2023-08-24T11:49:17;98136.41;;;23.06
79053;BMP280;68451;49.510;6.026;2023-08-24T11:51:42;98028.09;;;22.79
79053;BMP280;68451;49.510;6.026;2023-08-24T11:54:08;98024.03;;;22.82
79053;BMP280;68451;49.510;6.026;2023-08-24T11:56:41;97991.91;;;22.78
79053;BMP280;68451;49.510;6.026;2023-08-24T11:59:11;97932.16;;;22.35
79053;BMP280;68451;49.510;6.026;2023-08-24T12:01:37;97937.19;;;22.36
79053;BMP280;68451;49.510;6.026;2023-08-24T12:04:04;97900.41;;;22.02
79053;BMP280;68451;49.510;6.026;2023-08-24T12:06:30;97546.91;;;19.72
79053;BMP280;68451;49.510;6.026;2023-08-24T12:08:57;97924.81;;;22.04
79053;BMP280;68451;49.510;6.026;2023-08-24T12:11:22;97906.41;;;22.08
79053;BMP280;68451;49.510;6.026;2023-08-24T12:13:53;97907.00;;;22.18
79053;BMP280;68451;49.510;6.026;2023-08-24T12:16:20;97802.66;;;21.58
79053;BMP280;68451;49.510;6.026;2023-08-24T12:18:53;97803.56;;;21.67
79053;BMP280;68451;49.510;6.026;2023-08-24T12:21:20;97879.66;;;22.40
79053;BMP280;68451;49.510;6.026;2023-08-24T12:24:05;97900.00;;;22.72
79053;BMP280;68451;49.510;6.026;2023-08-24T12:26:35;97847.53;;;22.37
79053;BMP280;68451;49.510;6.026;2023-08-24T12:29:06;97820.94;;;22.37
79053;BMP280;68451;49.510;6.026;2023-08-24T12:31:32;97900.09;;;22.89
79053;BMP280;68451;49.510;6.026;2023-08-24T12:34:02;97877.84;;;22.85
79053;BMP280;68451;49.510;6.026;2023-08-24T12:36:29;97745.44;;;22.02
79053;BMP280;68451;49.510;6.026;2023-08-24T12:38:54;97852.38;;;22.70
79053;BMP280;68451;49.510;6.026;2023-08-24T12:41:20;97891.22;;;22.94
79053;BMP280;68451;49.510;6.026;2023-08-24T12:43:45;97831.72;;;22.54
79053;BMP280;68451;49.510;6.026;2023-08-24T12:46:11;97840.78;;;22.53
79053;BMP280;68451;49.510;6.026;2023-08-24T12:48:36;97845.09;;;22.62
79053;BMP280;68451;49.510;6.026;2023-08-24T12:51:02;97889.88;;;23.05
79053;BMP280;68451;49.510;6.026;2023-08-24T12:53:27;97854.97;;;22.84
79053;BMP280;68451;49.510;6.026;2023-08-24T12:55:53;97871.22;;;23.05
79053;BMP280;68451;49.510;6.026;2023-08-24T12:58:18;97893.66;;;23.12
79053;BMP280;68451;49.510;6.026;2023-08-24T13:00:45;97883.75;;;23.04
79053;BMP280;68451;49.510;6.026;2023-08-24T13:03:11;97888.22;;;23.17
79053;BMP280;68451;49.510;6.026;2023-08-24T13:05:37;97778.25;;;22.42
79053;BMP280;68451;49.510;6.026;2023-08-24T13:08:03;97871.56;;;23.03
79053;BMP280;68451;49.510;6.026;2023-08-24T13:10:29;97877.78;;;22.99
79053;BMP280;68451;49.510;6.026;2023-08-24T13:12:55;97898.19;;;23.03
79053;BMP280;68451;49.510;6.026;2023-08-24T13:15:21;97813.09;;;22.54
79053;BMP280;68451;49.510;6.026;2023-08-24T13:17:47;97890.66;;;23.05
79053;BMP280;68451;49.510;6.026;2023-08-24T13:20:12;97876.22;;;22.98
79053;BMP280;68451;49.510;6.026;2023-08-24T13:22:38;97878.88;;;22.98
79053;BMP280;68451;49.510;6.026;2023-08-24T13:25:04;97876.03;;;22.94
79053;BMP280;68451;49.510;6.026;2023-08-24T13:27:30;97875.94;;;22.86
79053;BMP280;68451;49.510;6.026;2023-08-24T13:29:59;97795.00;;;22.42
79053;BMP280;68451;49.510;6.026;2023-08-24T13:32:25;97866.47;;;22.93
79053;BMP280;68451;49.510;6.026;2023-08-24T13:34:50;97825.16;;;22.73
79053;BMP280;68451;49.510;6.026;2023-08-24T13:37:17;97662.88;;;21.62
79053;BMP280;68451;49.510;6.026;2023-08-24T13:39:42;97852.56;;;22.74
79053;BMP280;68451;49.510;6.026;2023-08-24T13:42:08;97846.44;;;22.73
79053;BMP280;68451;49.510;6.026;2023-08-24T13:44:34;97815.50;;;22.42
79053;BMP280;68451;49.510;6.026;2023-08-24T13:46:59;97864.38;;;22.68
79053;BMP280;68451;49.510;6.026;2023-08-24T13:49:25;97798.09;;;22.36
79053;BMP280;68451;49.510;6.026;2023-08-24T13:51:50;97863.41;;;22.64
79053;BMP280;68451;49.510;6.026;2023-08-24T13:54:17;97890.66;;;22.47
79053;BMP280;68451;49.510;6.026;2023-08-24T13:56:47;97638.97;;;20.44
79053;BMP280;68451;49.510;6.026;2023-08-24T13:59:14;98089.47;;;22.69
79053;BMP280;68451;49.510;6.026;2023-08-24T14:01:40;98094.63;;;22.79
79053;BMP280;68451;49.510;6.026;2023-08-24T14:04:06;97984.66;;;22.43
79053;BMP280;68451;49.510;6.026;2023-08-24T14:06:34;97906.88;;;21.82
79053;BMP280;68451;49.510;6.026;2023-08-24T14:09:01;97982.00;;;22.02
79053;BMP280;68451;49.510;6.026;2023-08-24T14:11:28;98024.97;;;22.36
79053;BMP280;68451;49.510;6.026;2023-08-24T14:13:53;97994.84;;;22.13
79053;BMP280;68451;49.510;6.026;2023-08-24T14:16:19;98027.91;;;22.21
79053;BMP280;68451;49.510;6.026;2023-08-24T14:18:45;97982.28;;;21.86